createdAt,value
2023-07-30T00:01:05.806Z,97958.78
2023-07-30T00:03:08.640Z,97957.22
2023-07-30T00:05:11.262Z,97954.84
2023-07-30T00:07:14.603Z,97950.47
2023-07-30T00:09:17.922Z,97946.53
2023-07-30T00:11:20.613Z,97947.34
2023-07-30T00:13:23.521Z,97933.81
2023-07-30T00:15:26.192Z,97948.16
2023-07-30T00:17:28.884Z,97941.03
2023-07-30T00:19:31.515Z,97937.50
2023-07-30T00:21:34.252Z,97944.31
2023-07-30T00:23:36.885Z,97949.50
2023-07-30T00:25:39.463Z,97949.13
2023-07-30T00:27:42.131Z,97933.59
2023-07-30T00:29:44.732Z,97943.59
2023-07-30T00:31:47.609Z,97953.97
2023-07-30T00:33:50.341Z,97946.84
2023-07-30T00:35:53.867Z,97953.22
2023-07-30T00:37:56.759Z,97956.00
2023-07-30T00:39:59.308Z,97950.84
2023-07-30T00:42:01.962Z,97953.22
2023-07-30T00:44:05.780Z,97949.25
2023-07-30T00:46:08.596Z,97944.88
2023-07-30T00:48:12.857Z,97948.03
2023-07-30T00:50:16.724Z,97949.25
2023-07-30T00:52:21.725Z,97945.25
2023-07-30T00:54:26.400Z,97955.19
2023-07-30T00:56:29.335Z,97945.25
2023-07-30T00:58:34.141Z,97943.69
2023-07-30T01:00:37.112Z,97948.47
2023-07-30T01:02:39.964Z,97942.09
2023-07-30T01:04:43.601Z,97935.69
2023-07-30T01:06:46.290Z,97938.91
2023-07-30T01:08:49.731Z,97938.47
2023-07-30T01:10:52.728Z,97931.34
2023-07-30T01:12:55.758Z,97932.91
2023-07-30T01:14:59.617Z,97932.53
2023-07-30T01:17:02.415Z,97934.53
2023-07-30T01:19:06.718Z,97936.88
2023-07-30T01:21:09.342Z,97932.09
2023-07-30T01:23:11.949Z,97933.72
2023-07-30T01:25:15.818Z,97931.31
2023-07-30T01:27:29.281Z,97936.88
2023-07-30T01:29:51.948Z,97930.13
2023-07-30T01:32:03.176Z,97931.75
2023-07-30T01:34:06.824Z,97943.59
2023-07-30T01:36:13.774Z,97941.25
2023-07-30T01:38:17.256Z,97944.03
2023-07-30T01:40:20.780Z,97940.44
2023-07-30T01:42:30.037Z,97943.19
2023-07-30T01:44:32.848Z,97942.41
2023-07-30T01:46:35.644Z,97934.84
2023-07-30T01:48:38.288Z,97930.81
2023-07-30T01:50:40.987Z,97925.63
2023-07-30T01:52:43.615Z,97932.34
2023-07-30T01:54:46.343Z,97930.66
2023-07-30T01:56:49.297Z,97938.53
2023-07-30T01:58:52.120Z,97937.63
2023-07-30T02:00:54.738Z,97934.38
2023-07-30T02:02:57.446Z,97945.03
2023-07-30T02:05:00.155Z,97942.13
2023-07-30T02:07:02.760Z,97938.88
2023-07-30T02:09:05.358Z,97925.22
2023-07-30T02:11:08.042Z,97931.44
2023-07-30T02:13:10.873Z,97934.59
2023-07-30T02:15:13.612Z,97928.53
2023-07-30T02:17:16.678Z,97934.47
2023-07-30T02:19:19.867Z,97936.47
2023-07-30T02:21:22.439Z,97934.47
2023-07-30T02:23:25.120Z,97935.97
2023-07-30T02:25:27.748Z,97934.34
2023-07-30T02:27:30.334Z,97927.97
2023-07-30T02:29:33.049Z,97915.16
2023-07-30T02:31:36.055Z,97914.75
2023-07-30T02:33:38.980Z,97911.13
2023-07-30T02:35:41.582Z,97903.53
2023-07-30T02:37:44.191Z,97911.50
2023-07-30T02:39:46.826Z,97902.25
2023-07-30T02:41:49.582Z,97901.47
2023-07-30T02:43:52.154Z,97908.91
2023-07-30T02:45:54.782Z,97902.09
2023-07-30T02:47:57.553Z,97901.19
2023-07-30T02:50:00.233Z,97901.13
2023-07-30T02:52:02.927Z,97903.81
2023-07-30T02:54:06.752Z,97901.66
2023-07-30T02:56:09.294Z,97893.84
2023-07-30T02:58:11.931Z,97895.97
2023-07-30T03:00:14.927Z,97893.69
2023-07-30T03:02:17.528Z,97894.94
2023-07-30T03:04:20.422Z,97892.97
2023-07-30T03:06:23.278Z,97900.19
2023-07-30T03:08:25.845Z,97898.66
2023-07-30T03:10:28.537Z,97899.59
2023-07-30T03:12:31.085Z,97904.22
2023-07-30T03:14:33.660Z,97900.00
2023-07-30T03:16:36.317Z,97893.03
2023-07-30T03:18:39.071Z,97895.88
2023-07-30T03:20:41.781Z,97901.91
2023-07-30T03:22:44.609Z,97905.53
2023-07-30T03:24:48.995Z,97909.59
2023-07-30T03:26:51.666Z,97911.41
2023-07-30T03:28:54.271Z,97925.19
2023-07-30T03:30:56.903Z,97919.78
2023-07-30T03:32:59.600Z,97916.31
2023-07-30T03:35:02.259Z,97917.13
2023-07-30T03:37:07.370Z,97914.00
2023-07-30T03:39:10.029Z,97918.25
2023-07-30T03:41:12.755Z,97922.41
2023-07-30T03:43:15.444Z,97919.63
2023-07-30T03:45:18.375Z,97912.88
2023-07-30T03:47:21.077Z,97925.00
2023-07-30T03:49:23.707Z,97921.66
2023-07-30T03:51:26.532Z,97924.25
2023-07-30T03:53:29.141Z,97927.69
2023-07-30T03:55:31.921Z,97931.59
2023-07-30T03:57:34.582Z,97936.78
2023-07-30T03:59:37.272Z,97934.75
2023-07-30T04:01:40.212Z,97933.00
2023-07-30T04:03:43.226Z,97948.25
2023-07-30T04:05:46.064Z,97944.28
2023-07-30T04:07:48.816Z,97949.44
2023-07-30T04:09:51.441Z,97941.50
2023-07-30T04:11:54.025Z,97943.50
2023-07-30T04:13:56.713Z,97935.06
2023-07-30T04:15:59.350Z,97918.94
2023-07-30T04:18:02.000Z,97923.97
2023-07-30T04:20:05.572Z,97923.09
2023-07-30T04:22:08.296Z,97915.91
2023-07-30T04:24:10.940Z,97913.09
2023-07-30T04:26:13.668Z,97924.78
2023-07-30T04:28:16.352Z,97921.19
2023-07-30T04:30:19.232Z,97917.03
2023-07-30T04:32:21.910Z,97915.34
2023-07-30T04:34:24.650Z,97916.03
2023-07-30T04:36:27.225Z,97907.94
2023-07-30T04:38:30.918Z,97904.72
2023-07-30T04:40:33.739Z,97908.53
2023-07-30T04:42:36.563Z,97897.31
2023-07-30T04:44:39.246Z,97896.09
2023-07-30T04:46:41.867Z,97904.03
2023-07-30T04:48:44.501Z,97907.84
2023-07-30T04:50:47.167Z,97913.91
2023-07-30T04:52:50.016Z,97920.25
2023-07-30T04:54:52.593Z,97924.59
2023-07-30T04:56:55.181Z,97919.41
2023-07-30T04:58:57.862Z,97916.00
2023-07-30T05:01:00.564Z,97917.06
2023-07-30T05:03:03.302Z,97924.06
2023-07-30T05:05:07.104Z,97919.63
2023-07-30T05:07:09.855Z,97931.22
2023-07-30T05:09:15.471Z,97934.97
2023-07-30T05:11:18.071Z,97942.53
2023-07-30T05:13:20.758Z,97935.56
2023-07-30T05:15:23.398Z,97928.72
2023-07-30T05:17:26.028Z,97925.13
2023-07-30T05:19:28.612Z,97926.03
2023-07-30T05:21:31.250Z,97928.84
2023-07-30T05:23:33.872Z,97931.06
2023-07-30T05:25:36.953Z,97936.03
2023-07-30T05:27:39.586Z,97944.59
2023-07-30T05:29:42.331Z,97945.97
2023-07-30T05:31:44.921Z,97944.56
2023-07-30T05:33:47.593Z,97949.72
2023-07-30T05:35:50.260Z,97950.81
2023-07-30T05:37:53.032Z,97955.06
2023-07-30T05:39:55.603Z,97956.16
2023-07-30T05:41:58.258Z,97968.22
2023-07-30T05:44:00.927Z,97957.75
2023-07-30T05:46:03.600Z,97963.09
2023-07-30T05:48:06.453Z,97956.25
2023-07-30T05:50:09.767Z,97954.25
2023-07-30T05:52:13.735Z,97947.44
2023-07-30T05:54:16.445Z,97940.72
2023-07-30T05:56:20.027Z,97949.06
2023-07-30T05:58:22.684Z,97960.97
2023-07-30T06:00:25.612Z,97964.88
2023-07-30T06:02:28.258Z,97965.03
2023-07-30T06:04:32.057Z,97962.69
2023-07-30T06:06:34.605Z,97960.69
2023-07-30T06:08:37.214Z,97955.66
2023-07-30T06:10:41.480Z,97961.13
2023-07-30T06:12:44.269Z,97965.97
2023-07-30T06:14:46.915Z,97961.75
2023-07-30T06:16:49.631Z,97956.16
2023-07-30T06:18:52.354Z,97942.41
2023-07-30T06:20:55.037Z,97939.16
2023-07-30T06:22:57.861Z,97940.06
2023-07-30T06:25:00.471Z,97938.94
2023-07-30T06:27:03.240Z,97935.69
2023-07-30T06:29:05.911Z,97935.97
2023-07-30T06:31:08.629Z,97926.25
2023-07-30T06:33:11.186Z,97930.59
2023-07-30T06:35:13.813Z,97929.81
2023-07-30T06:37:16.620Z,97927.41
2023-07-30T06:39:19.251Z,97930.38
2023-07-30T06:41:22.650Z,97937.44
2023-07-30T06:43:25.509Z,97929.78
2023-07-30T06:45:28.111Z,97936.06
2023-07-30T06:47:30.728Z,97930.53
2023-07-30T06:49:35.645Z,97938.84
2023-07-30T06:51:38.602Z,97936.34
2023-07-30T06:53:41.693Z,97942.41
2023-07-30T06:55:44.861Z,97944.16
2023-07-30T06:57:47.523Z,97935.69
2023-07-30T06:59:50.079Z,97933.81
2023-07-30T07:01:52.817Z,97932.25
2023-07-30T07:03:55.567Z,97932.88
2023-07-30T07:05:58.433Z,97926.13
2023-07-30T07:08:01.096Z,97923.31
2023-07-30T07:10:03.850Z,97924.09
2023-07-30T07:12:08.006Z,97924.66
2023-07-30T07:14:10.713Z,97915.88
2023-07-30T07:16:13.362Z,97918.09
2023-07-30T07:18:16.256Z,97920.88
2023-07-30T07:20:19.576Z,97917.91
2023-07-30T07:22:22.283Z,97918.41
2023-07-30T07:24:24.942Z,97915.31
2023-07-30T07:26:27.613Z,97922.63
2023-07-30T07:28:30.271Z,97917.31
2023-07-30T07:30:37.105Z,97924.03
2023-07-30T07:32:40.161Z,97928.25
2023-07-30T07:34:42.814Z,97923.09
2023-07-30T07:36:45.396Z,97930.00
2023-07-30T07:38:47.986Z,97927.69
2023-07-30T07:40:52.337Z,97929.53
2023-07-30T07:42:56.748Z,97935.81
2023-07-30T07:44:59.710Z,97937.38
2023-07-30T07:47:02.375Z,97927.16
2023-07-30T07:49:05.042Z,97936.88
2023-07-30T07:51:08.115Z,97931.06
2023-07-30T07:53:10.813Z,97931.81
2023-07-30T07:55:13.581Z,97928.16
2023-07-30T07:57:16.316Z,97940.06
2023-07-30T07:59:19.006Z,97927.34
2023-07-30T08:01:21.751Z,97931.44
2023-07-30T08:03:25.133Z,97931.44
2023-07-30T08:05:28.109Z,97937.09
2023-07-30T08:07:30.877Z,97933.75
2023-07-30T08:09:33.589Z,97942.38
2023-07-30T08:11:36.522Z,97938.47
2023-07-30T08:13:40.455Z,97939.34
2023-07-30T08:15:43.076Z,97941.50
2023-07-30T08:17:45.771Z,97933.97
2023-07-30T08:19:48.490Z,97935.50
2023-07-30T08:21:51.122Z,97944.06
2023-07-30T08:23:53.788Z,97945.31
2023-07-30T08:25:56.542Z,97941.78
2023-07-30T08:27:59.164Z,97946.69
2023-07-30T08:30:02.002Z,97941.84
2023-07-30T08:32:07.823Z,97950.44
2023-07-30T08:34:10.544Z,97947.09
2023-07-30T08:36:13.177Z,97943.31
2023-07-30T08:38:15.760Z,97949.06
2023-07-30T08:40:18.557Z,97949.78
2023-07-30T08:42:22.472Z,97942.69
2023-07-30T08:44:25.192Z,97947.50
2023-07-30T08:46:28.871Z,97949.31
2023-07-30T08:48:31.622Z,97941.72
2023-07-30T08:50:35.604Z,97941.91
2023-07-30T08:52:38.446Z,97946.84
2023-07-30T08:54:42.506Z,97935.59
2023-07-30T08:56:45.360Z,97930.00
2023-07-30T08:58:50.616Z,97936.91
2023-07-30T09:00:56.373Z,97938.28
2023-07-30T09:03:01.397Z,97933.13
2023-07-30T09:05:04.590Z,97930.59
2023-07-30T09:07:12.679Z,97936.03
2023-07-30T09:09:15.276Z,97931.25
2023-07-30T09:11:18.235Z,97926.91
2023-07-30T09:13:26.663Z,97929.47
2023-07-30T09:15:40.926Z,97932.00
2023-07-30T09:17:43.758Z,97923.13
2023-07-30T09:19:48.388Z,97928.25
2023-07-30T09:21:51.131Z,97934.22
2023-07-30T09:23:53.767Z,97937.41
2023-07-30T09:25:59.555Z,97924.44
2023-07-30T09:28:02.676Z,97925.94
2023-07-30T09:30:07.205Z,97930.97
2023-07-30T09:32:10.640Z,97926.88
2023-07-30T09:34:17.389Z,97933.41
2023-07-30T09:36:21.152Z,97925.44
2023-07-30T09:38:23.852Z,97928.78
2023-07-30T09:40:40.175Z,97923.22
2023-07-30T09:42:48.576Z,97928.38
2023-07-30T09:44:52.553Z,97919.72
2023-07-30T09:46:55.233Z,97922.75
2023-07-30T09:48:58.915Z,97912.22
2023-07-30T09:51:04.253Z,97909.47
2023-07-30T09:53:07.235Z,97910.97
2023-07-30T09:55:09.952Z,97917.09
2023-07-30T09:57:12.717Z,97906.41
2023-07-30T09:59:15.481Z,97917.31
2023-07-30T10:01:22.858Z,97913.03
2023-07-30T10:03:25.489Z,97908.75
2023-07-30T10:05:35.261Z,97924.72
2023-07-30T10:07:42.549Z,97915.03
2023-07-30T10:09:48.086Z,97910.72
2023-07-30T10:11:54.897Z,97915.44
2023-07-30T10:13:58.058Z,97907.38
2023-07-30T10:16:00.753Z,97917.69
2023-07-30T10:18:04.932Z,97919.38
2023-07-30T10:20:27.948Z,97922.88
2023-07-30T10:22:33.222Z,97913.34
2023-07-30T10:24:35.779Z,97914.72
2023-07-30T10:26:38.730Z,97915.22
2023-07-30T10:28:44.959Z,97894.06
2023-07-30T10:31:00.742Z,97902.72
2023-07-30T10:33:05.276Z,97890.63
2023-07-30T10:35:08.228Z,97900.47
2023-07-30T10:37:10.956Z,97897.16
2023-07-30T10:39:19.365Z,97898.59
2023-07-30T10:41:22.674Z,97889.69
2023-07-30T10:43:32.571Z,97888.72
2023-07-30T10:45:35.209Z,97890.47
2023-07-30T10:47:37.888Z,97892.69
2023-07-30T10:49:48.479Z,97886.25
2023-07-30T10:51:55.582Z,97884.63
2023-07-30T10:53:58.335Z,97882.66
2023-07-30T10:56:04.918Z,97884.00
2023-07-30T10:58:07.700Z,97894.03
2023-07-30T11:00:11.737Z,97884.63
2023-07-30T11:02:16.386Z,97886.97
2023-07-30T11:04:21.103Z,97892.19
2023-07-30T11:06:25.189Z,97891.81
2023-07-30T11:08:38.512Z,97892.25
2023-07-30T11:10:48.321Z,97881.56
2023-07-30T11:12:51.317Z,97886.63
2023-07-30T11:15:04.729Z,97895.75
2023-07-30T11:17:09.918Z,97886.44
2023-07-30T11:19:14.781Z,97887.25
2023-07-30T11:21:19.129Z,97880.41
2023-07-30T11:23:24.861Z,97875.94
2023-07-30T11:25:27.498Z,97887.50
2023-07-30T11:27:30.928Z,97879.16
2023-07-30T11:29:33.623Z,97878.75
2023-07-30T11:31:36.505Z,97891.59
2023-07-30T11:33:45.353Z,97885.19
2023-07-30T11:35:48.297Z,97892.00
2023-07-30T11:37:50.983Z,97882.22
2023-07-30T11:39:53.887Z,97884.59
2023-07-30T11:41:56.730Z,97886.03
2023-07-30T11:43:59.524Z,97885.47
2023-07-30T11:46:09.979Z,97890.22
2023-07-30T11:48:13.574Z,97888.63
2023-07-30T11:50:16.928Z,97892.66
2023-07-30T11:52:19.685Z,97892.81
2023-07-30T11:54:26.276Z,97887.88
2023-07-30T11:56:31.850Z,97889.72
2023-07-30T11:58:34.744Z,97887.09
2023-07-30T12:00:38.979Z,97890.59
2023-07-30T12:02:42.481Z,97886.56
2023-07-30T12:04:49.091Z,97898.47
2023-07-30T12:06:56.022Z,97904.47
2023-07-30T12:08:59.913Z,97907.59
2023-07-30T12:11:07.321Z,97910.31
2023-07-30T12:13:21.075Z,97911.38
2023-07-30T12:15:24.198Z,97912.16
2023-07-30T12:17:27.001Z,97915.63
2023-07-30T12:19:29.739Z,97910.44
2023-07-30T12:21:32.409Z,97907.34
2023-07-30T12:23:39.532Z,97905.91
2023-07-30T12:25:42.292Z,97901.78
2023-07-30T12:27:44.886Z,97911.00
2023-07-30T12:29:47.539Z,97905.63
2023-07-30T12:31:53.081Z,97904.97
2023-07-30T12:33:56.526Z,97902.47
2023-07-30T12:35:59.260Z,97904.91
2023-07-30T12:38:02.370Z,97907.88
2023-07-30T12:40:05.616Z,97913.09
2023-07-30T12:42:08.359Z,97907.63
2023-07-30T12:44:11.000Z,97905.53
2023-07-30T12:46:13.722Z,97900.44
2023-07-30T12:48:16.393Z,97903.56
2023-07-30T12:50:18.982Z,97897.66
2023-07-30T12:52:21.824Z,97891.31
2023-07-30T12:54:24.428Z,97892.38
2023-07-30T12:56:27.252Z,97891.19
2023-07-30T12:58:30.037Z,97882.75
2023-07-30T13:00:34.208Z,97882.88
2023-07-30T13:02:37.436Z,97877.59
2023-07-30T13:04:40.038Z,97886.72
2023-07-30T13:06:42.615Z,97881.84
2023-07-30T13:08:45.234Z,97883.22
2023-07-30T13:10:48.072Z,97874.91
2023-07-30T13:12:50.642Z,97877.91
2023-07-30T13:14:53.312Z,97883.13
2023-07-30T13:16:55.881Z,97876.97
2023-07-30T13:18:58.532Z,97876.97
2023-07-30T13:21:01.140Z,97878.03
2023-07-30T13:23:03.854Z,97875.31
2023-07-30T13:25:06.728Z,97874.88
2023-07-30T13:27:09.381Z,97874.25
2023-07-30T13:29:12.214Z,97886.28
2023-07-30T13:31:14.918Z,97889.41
2023-07-30T13:33:17.908Z,97890.63
2023-07-30T13:35:21.813Z,97882.09
2023-07-30T13:37:24.353Z,97875.94
2023-07-30T13:39:27.176Z,97886.06
2023-07-30T13:41:29.779Z,97890.31
2023-07-30T13:43:33.060Z,97886.31
2023-07-30T13:45:35.630Z,97891.59
2023-07-30T13:47:38.308Z,97889.88
2023-07-30T13:49:41.061Z,97892.09
2023-07-30T13:51:43.670Z,97884.34
2023-07-30T13:53:46.422Z,97879.06
2023-07-30T13:55:49.375Z,97881.16
2023-07-30T13:57:51.944Z,97884.31
2023-07-30T13:59:54.859Z,97877.13
2023-07-30T14:01:57.601Z,97870.31
2023-07-30T14:04:00.305Z,97873.50
2023-07-30T14:06:02.918Z,97881.34
2023-07-30T14:08:05.858Z,97893.03
2023-07-30T14:10:08.765Z,97890.72
2023-07-30T14:12:11.869Z,97884.78
2023-07-30T14:14:14.678Z,97883.47
2023-07-30T14:16:17.343Z,97908.75
2023-07-30T14:18:20.037Z,97890.50
2023-07-30T14:20:23.016Z,97892.50
2023-07-30T14:22:25.740Z,97896.59
2023-07-30T14:24:28.915Z,97894.44
2023-07-30T14:26:31.512Z,97901.56
2023-07-30T14:28:34.292Z,97903.16
2023-07-30T14:30:37.088Z,97903.34
2023-07-30T14:32:39.765Z,97902.91
2023-07-30T14:34:42.424Z,97898.41
2023-07-30T14:36:45.110Z,97897.22
2023-07-30T14:38:47.675Z,97895.72
2023-07-30T14:40:50.398Z,97897.16
2023-07-30T14:42:53.116Z,97894.69
2023-07-30T14:44:55.737Z,97908.13
2023-07-30T14:46:59.617Z,97901.22
2023-07-30T14:49:03.526Z,97890.25
2023-07-30T14:51:06.123Z,97904.72
2023-07-30T14:53:08.715Z,97910.72
2023-07-30T14:55:11.392Z,97912.75
2023-07-30T14:57:13.989Z,97917.91
2023-07-30T14:59:16.737Z,97921.81
2023-07-30T15:01:19.416Z,97911.63
2023-07-30T15:03:22.079Z,97921.34
2023-07-30T15:05:24.771Z,97916.66
2023-07-30T15:07:29.192Z,97905.06
2023-07-30T15:09:36.049Z,97907.94
2023-07-30T15:11:38.745Z,97905.13
2023-07-30T15:13:41.808Z,97913.16
2023-07-30T15:15:45.440Z,97918.94
2023-07-30T15:17:48.035Z,97916.94
2023-07-30T15:19:52.260Z,97913.63
2023-07-30T15:21:54.969Z,97906.44
2023-07-30T15:23:59.373Z,97905.81
2023-07-30T15:26:01.931Z,97915.53
2023-07-30T15:28:04.883Z,97911.63
2023-07-30T15:30:09.092Z,97914.63
2023-07-30T15:32:12.048Z,97912.13
2023-07-30T15:34:15.613Z,97913.69
2023-07-30T15:36:18.171Z,97901.97
2023-07-30T15:38:20.830Z,97906.53
2023-07-30T15:40:23.505Z,97916.09
2023-07-30T15:42:26.122Z,97911.41
2023-07-30T15:44:29.182Z,97910.59
2023-07-30T15:46:31.825Z,97908.25
2023-07-30T15:48:34.933Z,97906.97
2023-07-30T15:50:37.514Z,97902.47
2023-07-30T15:52:40.143Z,97899.00
2023-07-30T15:54:42.873Z,97896.84
2023-07-30T15:56:45.506Z,97900.00
2023-07-30T15:58:48.057Z,97898.75
2023-07-30T16:00:50.675Z,97901.09
2023-07-30T16:02:53.503Z,97897.84
2023-07-30T16:04:56.175Z,97894.06
2023-07-30T16:07:01.596Z,97894.41
2023-07-30T16:09:04.406Z,97892.66
2023-07-30T16:11:08.726Z,97885.91
2023-07-30T16:13:11.621Z,97880.91
2023-07-30T16:15:14.435Z,97890.00
2023-07-30T16:17:17.136Z,97881.69
2023-07-30T16:19:19.858Z,97875.13
2023-07-30T16:21:22.440Z,97884.34
2023-07-30T16:23:25.013Z,97886.19
2023-07-30T16:25:27.671Z,97889.63
2023-07-30T16:27:30.358Z,97876.03
2023-07-30T16:29:34.000Z,97873.69
2023-07-30T16:31:36.805Z,97864.94
2023-07-30T16:33:39.495Z,97879.00
2023-07-30T16:35:42.050Z,97883.53
2023-07-30T16:37:46.033Z,97880.09
2023-07-30T16:39:48.662Z,97888.81
2023-07-30T16:41:51.259Z,97891.44
2023-07-30T16:43:55.487Z,97886.13
2023-07-30T16:46:03.030Z,97896.72
2023-07-30T16:48:05.953Z,97901.06
2023-07-30T16:50:09.192Z,97903.22
2023-07-30T16:52:11.748Z,97910.22
2023-07-30T16:54:15.275Z,97912.50
2023-07-30T16:56:18.485Z,97911.69
2023-07-30T16:58:21.064Z,97909.03
2023-07-30T17:00:24.004Z,97924.47
2023-07-30T17:02:26.725Z,97924.22
2023-07-30T17:04:29.497Z,97927.97
2023-07-30T17:06:32.359Z,97915.09
2023-07-30T17:08:35.023Z,97922.09
2023-07-30T17:10:38.118Z,97918.28
2023-07-30T17:12:40.866Z,97928.25
2023-07-30T17:14:43.479Z,97924.78
2023-07-30T17:16:46.661Z,97928.94
2023-07-30T17:18:51.953Z,97927.84
2023-07-30T17:20:58.425Z,97927.66
2023-07-30T17:23:01.219Z,97920.59
2023-07-30T17:25:05.956Z,97919.16
2023-07-30T17:27:08.828Z,97918.50
2023-07-30T17:29:11.533Z,97917.50
2023-07-30T17:31:14.327Z,97914.31
2023-07-30T17:33:17.024Z,97916.50
2023-07-30T17:35:20.675Z,97903.00
2023-07-30T17:37:23.387Z,97909.53
2023-07-30T17:39:25.953Z,97904.19
2023-07-30T17:41:29.058Z,97903.97
2023-07-30T17:43:32.052Z,97902.53
2023-07-30T17:45:37.916Z,97905.44
2023-07-30T17:47:40.941Z,97904.31
2023-07-30T17:49:43.563Z,97904.91
2023-07-30T17:51:46.533Z,97906.69
2023-07-30T17:53:52.331Z,97910.84
2023-07-30T17:55:56.179Z,97911.00
2023-07-30T17:57:59.032Z,97909.97
2023-07-30T18:00:01.627Z,97904.59
2023-07-30T18:02:05.754Z,97899.09
2023-07-30T18:04:08.375Z,97897.50
2023-07-30T18:06:10.978Z,97893.25
2023-07-30T18:08:13.701Z,97887.09
2023-07-30T18:10:16.581Z,97896.19
2023-07-30T18:12:19.637Z,97892.38
2023-07-30T18:14:23.129Z,97893.25
2023-07-30T18:16:25.826Z,97892.94
2023-07-30T18:18:28.544Z,97896.97
2023-07-30T18:20:32.833Z,97889.81
2023-07-30T18:22:35.635Z,97886.31
2023-07-30T18:24:39.749Z,97883.94
2023-07-30T18:26:43.234Z,97883.63
2023-07-30T18:28:46.908Z,97872.97
2023-07-30T18:30:49.471Z,97871.50
2023-07-30T18:32:52.218Z,97868.81
2023-07-30T18:34:55.373Z,97873.75
2023-07-30T18:36:57.917Z,97871.50
2023-07-30T18:39:00.630Z,97862.75
2023-07-30T18:41:06.790Z,97861.28
2023-07-30T18:43:09.435Z,97866.97
2023-07-30T18:45:12.064Z,97871.09
2023-07-30T18:47:14.695Z,97871.66
2023-07-30T18:49:18.851Z,97869.41
2023-07-30T18:51:21.462Z,97879.13
2023-07-30T18:53:24.623Z,97875.34
2023-07-30T18:55:27.243Z,97878.66
2023-07-30T18:57:29.815Z,97884.44
2023-07-30T18:59:32.394Z,97872.25
2023-07-30T19:01:36.181Z,97881.19
2023-07-30T19:03:38.917Z,97877.69
2023-07-30T19:05:41.713Z,97884.63
2023-07-30T19:07:44.309Z,97889.16
2023-07-30T19:09:48.063Z,97883.69
2023-07-30T19:11:50.846Z,97895.31
2023-07-30T19:13:53.392Z,97891.38
2023-07-30T19:15:56.283Z,97885.50
2023-07-30T19:17:59.024Z,97894.34
2023-07-30T19:20:01.777Z,97898.03
2023-07-30T19:22:07.111Z,97891.72
2023-07-30T19:24:09.860Z,97887.44
2023-07-30T19:26:12.519Z,97885.84
2023-07-30T19:28:15.450Z,97885.97
2023-07-30T19:30:18.229Z,97889.19
2023-07-30T19:32:20.836Z,97890.06
2023-07-30T19:34:23.589Z,97898.13
2023-07-30T19:36:26.241Z,97889.38
2023-07-30T19:38:29.507Z,97892.00
2023-07-30T19:40:32.815Z,97902.50
2023-07-30T19:42:35.509Z,97887.81
2023-07-30T19:44:38.156Z,97896.63
2023-07-30T19:46:41.136Z,97896.28
2023-07-30T19:48:45.394Z,97898.28
2023-07-30T19:50:48.570Z,97896.38
2023-07-30T19:52:51.211Z,97897.22
2023-07-30T19:54:55.231Z,97903.28
2023-07-30T19:56:57.958Z,97903.69
2023-07-30T19:59:00.578Z,97902.91
2023-07-30T20:01:03.753Z,97907.72
2023-07-30T20:03:06.533Z,97907.38
2023-07-30T20:05:09.377Z,97911.72
2023-07-30T20:07:12.375Z,97911.03
2023-07-30T20:09:15.082Z,97913.13
2023-07-30T20:11:17.766Z,97906.41
2023-07-30T20:13:20.541Z,97909.25
2023-07-30T20:15:23.150Z,97908.50
2023-07-30T20:17:25.760Z,97910.84
2023-07-30T20:19:28.876Z,97914.84
2023-07-30T20:21:31.515Z,97912.06
2023-07-30T20:23:34.234Z,97906.94
2023-07-30T20:25:38.419Z,97915.31
2023-07-30T20:27:41.154Z,97907.34
2023-07-30T20:29:44.757Z,97913.38
2023-07-30T20:31:47.497Z,97910.50
2023-07-30T20:33:50.448Z,97920.81
2023-07-30T20:35:53.036Z,97912.41
2023-07-30T20:37:59.063Z,97922.72
2023-07-30T20:40:02.161Z,97915.03
2023-07-30T20:42:08.133Z,97911.72
2023-07-30T20:44:10.932Z,97912.88
2023-07-30T20:46:14.452Z,97913.56
2023-07-30T20:48:17.306Z,97910.72
2023-07-30T20:50:20.247Z,97909.91
2023-07-30T20:52:23.004Z,97904.41
2023-07-30T20:54:25.624Z,97894.09
2023-07-30T20:56:28.717Z,97900.66
2023-07-30T20:58:31.963Z,97896.00
2023-07-30T21:00:34.512Z,97896.19
2023-07-30T21:02:37.738Z,97900.63
2023-07-30T21:04:41.311Z,97903.81
2023-07-30T21:06:43.843Z,97905.44
2023-07-30T21:08:46.549Z,97901.03
2023-07-30T21:10:49.117Z,97895.53
2023-07-30T21:12:51.785Z,97905.81
2023-07-30T21:14:54.468Z,97903.09
2023-07-30T21:16:57.064Z,97909.91
2023-07-30T21:18:59.755Z,97916.38
2023-07-30T21:21:02.472Z,97901.78
2023-07-30T21:23:05.165Z,97907.88
2023-07-30T21:25:08.345Z,97902.81
2023-07-30T21:27:11.085Z,97899.38
2023-07-30T21:29:13.729Z,97901.03
2023-07-30T21:31:16.448Z,97909.13
2023-07-30T21:35:21.539Z,97910.56
2023-07-30T21:37:24.616Z,97911.06
2023-07-30T21:39:27.294Z,97902.41
2023-07-30T21:43:32.650Z,97916.50
2023-07-30T21:45:35.480Z,97909.06
2023-07-30T21:47:38.169Z,97909.94
2023-07-30T21:49:40.815Z,97908.44
2023-07-30T21:51:43.545Z,97907.00
2023-07-30T21:53:46.222Z,97908.63
2023-07-30T21:55:48.972Z,97907.13
2023-07-30T21:57:51.803Z,97915.94
2023-07-30T21:59:54.645Z,97906.84
2023-07-30T22:01:57.244Z,97902.03
2023-07-30T22:04:00.606Z,97907.63
2023-07-30T22:06:03.171Z,97906.47
2023-07-30T22:08:05.732Z,97903.69
2023-07-30T22:10:10.521Z,97901.34
2023-07-30T22:12:13.229Z,97906.91
2023-07-30T22:14:15.788Z,97909.72
2023-07-30T22:16:18.525Z,97912.91
2023-07-30T22:18:21.181Z,97904.19
2023-07-30T22:20:23.746Z,97906.31
2023-07-30T22:22:27.512Z,97917.09
2023-07-30T22:24:30.114Z,97910.44
2023-07-30T22:26:32.724Z,97914.47
2023-07-30T22:28:35.491Z,97916.50
2023-07-30T22:30:41.669Z,97912.19
2023-07-30T22:32:45.414Z,97916.19
2023-07-30T22:34:48.084Z,97913.09
2023-07-30T22:36:50.779Z,97913.53
2023-07-30T22:38:53.523Z,97911.94
2023-07-30T22:40:56.144Z,97910.00
2023-07-30T22:42:58.718Z,97904.06
2023-07-30T22:45:04.365Z,97900.50
2023-07-30T22:47:07.863Z,97891.72
2023-07-30T22:49:10.470Z,97898.88
2023-07-30T22:51:13.026Z,97901.66
2023-07-30T22:53:15.808Z,97905.66
2023-07-30T22:55:18.404Z,97908.53
2023-07-30T22:57:20.996Z,97898.25
2023-07-30T22:59:23.759Z,97895.53
2023-07-30T23:01:26.474Z,97893.53
2023-07-30T23:03:29.273Z,97891.94
2023-07-30T23:05:32.170Z,97884.47
2023-07-30T23:07:34.830Z,97894.81
2023-07-30T23:09:37.396Z,97895.16
2023-07-30T23:11:41.567Z,97900.38
2023-07-30T23:13:44.392Z,97891.22
2023-07-30T23:15:47.060Z,97896.06
2023-07-30T23:17:49.766Z,97897.22
2023-07-30T23:19:52.357Z,97901.59
2023-07-30T23:21:55.050Z,97895.66
2023-07-30T23:23:57.761Z,97898.81
2023-07-30T23:26:00.364Z,97889.66
2023-07-30T23:28:03.085Z,97893.59
2023-07-30T23:30:06.655Z,97886.81
2023-07-30T23:32:09.402Z,97892.75
2023-07-30T23:34:12.032Z,97892.75
2023-07-30T23:36:16.927Z,97897.09
2023-07-30T23:38:20.021Z,97893.13
2023-07-30T23:40:24.240Z,97901.53
2023-07-30T23:42:26.886Z,97893.16
2023-07-30T23:44:29.495Z,97887.66
2023-07-30T23:46:32.136Z,97890.94
2023-07-30T23:48:34.806Z,97888.56
2023-07-30T23:50:37.371Z,97884.25
2023-07-30T23:52:39.948Z,97884.66
2023-07-30T23:54:42.700Z,97883.50
2023-07-30T23:56:45.269Z,97886.78
2023-07-30T23:58:47.816Z,97885.69
